sensor_id;sensor_type;location;lat;lon;timestamp;temperature;humidity
52725;DHT22;38621;52.830;6.914;2022-11-20T00:01:28;-1.80;99.90
52725;DHT22;38621;52.830;6.914;2022-11-20T00:03:56;-1.90;99.90
52725;DHT22;38621;52.830;6.914;2022-11-20T00:06:23;-1.20;99.90
52725;DHT22;38621;52.830;6.914;2022-11-20T00:08:51;-1.80;99.90
52725;DHT22;38621;52.830;6.914;2022-11-20T00:11:22;-1.70;99.90
52725;DHT22;38621;52.830;6.914;2022-11-20T00:13:50;-1.10;99.90
52725;DHT22;38621;52.830;6.914;2022-11-20T00:16:18;-1.60;99.90
52725;DHT22;38621;52.830;6.914;2022-11-20T00:18:45;-1.60;99.90
52725;DHT22;38621;52.830;6.914;2022-11-20T00:21:14;-1.50;99.90
52725;DHT22;38621;52.830;6.914;2022-11-20T00:23:40;-1.50;99.90
52725;DHT22;38621;52.830;6.914;2022-11-20T00:26:09;-0.10;99.90
52725;DHT22;38621;52.830;6.914;2022-11-20T00:28:35;-1.30;99.90
52725;DHT22;38621;52.830;6.914;2022-11-20T00:31:10;-1.30;99.90
52725;DHT22;38621;52.830;6.914;2022-11-20T00:33:36;-1.20;99.90
52725;DHT22;38621;52.830;6.914;2022-11-20T00:36:07;-1.20;99.90
52725;DHT22;38621;52.830;6.914;2022-11-20T00:38:33;-1.20;99.90
52725;DHT22;38621;52.830;6.914;2022-11-20T00:41:01;-0.10;99.90
52725;DHT22;38621;52.830;6.914;2022-11-20T00:43:27;-1.10;99.90
52725;DHT22;38621;52.830;6.914;2022-11-20T00:46:09;0.10;99.90
52725;DHT22;38621;52.830;6.914;2022-11-20T00:48:35;-1.10;99.90
52725;DHT22;38621;52.830;6.914;2022-11-20T00:51:01;-1.20;99.90
52725;DHT22;38621;52.830;6.914;2022-11-20T00:53:27;0.60;99.90
52725;DHT22;38621;52.830;6.914;2022-11-20T00:56:04;-1.20;99.90
52725;DHT22;38621;52.830;6.914;2022-11-20T00:58:33;-1.10;99.90
52725;DHT22;38621;52.830;6.914;2022-11-20T01:01:01;-0.70;99.90
52725;DHT22;38621;52.830;6.914;2022-11-20T01:03:27;-1.00;99.90
52725;DHT22;38621;52.830;6.914;2022-11-20T01:06:00;-1.00;99.90
52725;DHT22;38621;52.830;6.914;2022-11-20T01:08:29;-0.40;99.90
52725;DHT22;38621;52.830;6.914;2022-11-20T01:10:59;-0.80;99.90
52725;DHT22;38621;52.830;6.914;2022-11-20T01:13:26;1.10;99.90
52725;DHT22;38621;52.830;6.914;2022-11-20T01:18:35;-0.80;99.90
52725;DHT22;38621;52.830;6.914;2022-11-20T01:21:03;0.70;99.90
52725;DHT22;38621;52.830;6.914;2022-11-20T01:23:34;-0.50;99.90
52725;DHT22;38621;52.830;6.914;2022-11-20T01:26:01;-0.70;99.90
52725;DHT22;38621;52.830;6.914;2022-11-20T01:28:29;-0.10;99.90
52725;DHT22;38621;52.830;6.914;2022-11-20T01:30:54;-0.20;99.90
52725;DHT22;38621;52.830;6.914;2022-11-20T01:33:20;-0.70;99.90
52725;DHT22;38621;52.830;6.914;2022-11-20T01:35:46;-0.70;99.90
52725;DHT22;38621;52.830;6.914;2022-11-20T01:38:11;-0.70;99.90
52725;DHT22;38621;52.830;6.914;2022-11-20T01:40:37;-0.70;99.90
52725;DHT22;38621;52.830;6.914;2022-11-20T01:43:17;-0.80;99.90
52725;DHT22;38621;52.830;6.914;2022-11-20T01:46:03;-0.90;99.90
52725;DHT22;38621;52.830;6.914;2022-11-20T01:48:37;-1.00;99.90
52725;DHT22;38621;52.830;6.914;2022-11-20T01:51:06;-1.00;99.90
52725;DHT22;38621;52.830;6.914;2022-11-20T01:53:36;-1.00;99.90
52725;DHT22;38621;52.830;6.914;2022-11-20T01:56:04;-1.00;99.90
52725;DHT22;38621;52.830;6.914;2022-11-20T01:58:34;-1.00;99.90
52725;DHT22;38621;52.830;6.914;2022-11-20T02:01:00;-0.70;99.90
52725;DHT22;38621;52.830;6.914;2022-11-20T02:03:27;-0.80;99.90
52725;DHT22;38621;52.830;6.914;2022-11-20T02:06:07;0.10;99.90
52725;DHT22;38621;52.830;6.914;2022-11-20T02:08:36;-0.80;99.90
52725;DHT22;38621;52.830;6.914;2022-11-20T02:11:03;-0.30;99.90
52725;DHT22;38621;52.830;6.914;2022-11-20T02:13:28;-0.90;99.90
52725;DHT22;38621;52.830;6.914;2022-11-20T02:16:21;0.10;99.90
52725;DHT22;38621;52.830;6.914;2022-11-20T02:18:48;-0.80;99.90
52725;DHT22;38621;52.830;6.914;2022-11-20T02:21:43;0.00;99.90
52725;DHT22;38621;52.830;6.914;2022-11-20T02:24:15;-0.70;99.90
52725;DHT22;38621;52.830;6.914;2022-11-20T02:29:36;-0.90;99.90
52725;DHT22;38621;52.830;6.914;2022-11-20T02:32:03;-0.90;99.90
52725;DHT22;38621;52.830;6.914;2022-11-20T02:34:28;-0.90;99.90
52725;DHT22;38621;52.830;6.914;2022-11-20T02:36:55;0.30;99.90
52725;DHT22;38621;52.830;6.914;2022-11-20T02:39:23;-0.90;99.90
52725;DHT22;38621;52.830;6.914;2022-11-20T02:41:52;-0.90;99.90
52725;DHT22;38621;52.830;6.914;2022-11-20T02:44:19;-0.90;99.90
52725;DHT22;38621;52.830;6.914;2022-11-20T02:46:45;-0.90;99.90
52725;DHT22;38621;52.830;6.914;2022-11-20T02:49:11;-0.90;99.90
52725;DHT22;38621;52.830;6.914;2022-11-20T02:51:37;-0.50;99.90
52725;DHT22;38621;52.830;6.914;2022-11-20T02:54:03;0.70;99.90
52725;DHT22;38621;52.830;6.914;2022-11-20T02:56:29;-0.80;99.90
52725;DHT22;38621;52.830;6.914;2022-11-20T02:58:54;-0.70;99.90
52725;DHT22;38621;52.830;6.914;2022-11-20T03:01:21;-0.50;99.90
52725;DHT22;38621;52.830;6.914;2022-11-20T03:03:46;-0.70;99.90
52725;DHT22;38621;52.830;6.914;2022-11-20T03:06:15;-0.70;99.90
52725;DHT22;38621;52.830;6.914;2022-11-20T03:08:41;-0.70;99.90
52725;DHT22;38621;52.830;6.914;2022-11-20T03:11:07;-0.60;99.90
52725;DHT22;38621;52.830;6.914;2022-11-20T03:13:33;0.60;99.90
52725;DHT22;38621;52.830;6.914;2022-11-20T03:16:23;1.00;99.90
52725;DHT22;38621;52.830;6.914;2022-11-20T03:18:49;-0.60;99.90
52725;DHT22;38621;52.830;6.914;2022-11-20T03:21:15;-0.60;99.90
52725;DHT22;38621;52.830;6.914;2022-11-20T03:23:41;-0.70;99.90
52725;DHT22;38621;52.830;6.914;2022-11-20T03:26:16;-0.80;99.90
52725;DHT22;38621;52.830;6.914;2022-11-20T03:28:46;-0.80;99.90
52725;DHT22;38621;52.830;6.914;2022-11-20T03:31:15;-0.90;99.90
52725;DHT22;38621;52.830;6.914;2022-11-20T03:33:42;0.70;99.90
52725;DHT22;38621;52.830;6.914;2022-11-20T03:36:10;-0.20;99.90
52725;DHT22;38621;52.830;6.914;2022-11-20T03:38:36;-0.80;99.90
52725;DHT22;38621;52.830;6.914;2022-11-20T03:41:04;-0.70;99.90
52725;DHT22;38621;52.830;6.914;2022-11-20T03:43:31;-0.70;99.90
52725;DHT22;38621;52.830;6.914;2022-11-20T03:45:57;-0.70;99.90
52725;DHT22;38621;52.830;6.914;2022-11-20T03:48:23;-0.70;99.90
52725;DHT22;38621;52.830;6.914;2022-11-20T03:50:49;-0.70;99.90
52725;DHT22;38621;52.830;6.914;2022-11-20T03:53:16;0.60;99.90
52725;DHT22;38621;52.830;6.914;2022-11-20T03:55:41;-0.60;99.90
52725;DHT22;38621;52.830;6.914;2022-11-20T03:58:08;-0.60;99.90
52725;DHT22;38621;52.830;6.914;2022-11-20T04:00:33;-0.60;99.90
52725;DHT22;38621;52.830;6.914;2022-11-20T04:03:00;-0.50;99.90
52725;DHT22;38621;52.830;6.914;2022-11-20T04:05:26;0.40;99.90
52725;DHT22;38621;52.830;6.914;2022-11-20T04:07:51;-0.50;99.90
52725;DHT22;38621;52.830;6.914;2022-11-20T04:10:17;0.40;99.90
52725;DHT22;38621;52.830;6.914;2022-11-20T04:12:43;-0.50;99.90
52725;DHT22;38621;52.830;6.914;2022-11-20T04:15:09;-0.50;99.90
52725;DHT22;38621;52.830;6.914;2022-11-20T04:17:35;-0.50;99.90
52725;DHT22;38621;52.830;6.914;2022-11-20T04:20:01;-0.40;99.90
52725;DHT22;38621;52.830;6.914;2022-11-20T04:22:26;-0.40;99.90
52725;DHT22;38621;52.830;6.914;2022-11-20T04:24:52;1.10;99.90
52725;DHT22;38621;52.830;6.914;2022-11-20T04:27:18;-0.40;99.90
52725;DHT22;38621;52.830;6.914;2022-11-20T04:29:43;-0.40;99.90
52725;DHT22;38621;52.830;6.914;2022-11-20T04:32:09;-0.40;99.90
52725;DHT22;38621;52.830;6.914;2022-11-20T04:34:35;1.00;99.90
52725;DHT22;38621;52.830;6.914;2022-11-20T04:37:01;-0.40;99.90
52725;DHT22;38621;52.830;6.914;2022-11-20T04:39:26;-0.30;99.90
52725;DHT22;38621;52.830;6.914;2022-11-20T04:41:52;0.80;99.90
52725;DHT22;38621;52.830;6.914;2022-11-20T04:44:38;-0.30;99.90
52725;DHT22;38621;52.830;6.914;2022-11-20T04:47:03;-0.30;99.90
52725;DHT22;38621;52.830;6.914;2022-11-20T04:49:29;-0.40;99.90
52725;DHT22;38621;52.830;6.914;2022-11-20T04:51:57;0.20;99.90
52725;DHT22;38621;52.830;6.914;2022-11-20T04:54:23;0.70;99.90
52725;DHT22;38621;52.830;6.914;2022-11-20T04:56:48;-0.50;99.90
52725;DHT22;38621;52.830;6.914;2022-11-20T04:59:14;-0.60;99.90
52725;DHT22;38621;52.830;6.914;2022-11-20T05:01:40;1.00;99.90
52725;DHT22;38621;52.830;6.914;2022-11-20T05:04:06;-0.60;99.90
52725;DHT22;38621;52.830;6.914;2022-11-20T05:06:32;-0.60;99.90
52725;DHT22;38621;52.830;6.914;2022-11-20T05:08:58;-0.60;99.90
52725;DHT22;38621;52.830;6.914;2022-11-20T05:11:24;-0.50;99.90
52725;DHT22;38621;52.830;6.914;2022-11-20T05:13:51;-0.70;99.90
52725;DHT22;38621;52.830;6.914;2022-11-20T05:16:18;-0.70;99.90
52725;DHT22;38621;52.830;6.914;2022-11-20T05:18:45;-0.60;99.90
52725;DHT22;38621;52.830;6.914;2022-11-20T05:21:11;-0.60;99.90
52725;DHT22;38621;52.830;6.914;2022-11-20T05:23:38;-1.90;99.90
52725;DHT22;38621;52.830;6.914;2022-11-20T05:26:05;-0.60;99.90
52725;DHT22;38621;52.830;6.914;2022-11-20T05:28:31;0.90;99.90
52725;DHT22;38621;52.830;6.914;2022-11-20T05:31:05;-0.50;99.90
52725;DHT22;38621;52.830;6.914;2022-11-20T05:33:31;-0.40;99.90
52725;DHT22;38621;52.830;6.914;2022-11-20T05:36:03;0.70;99.90
52725;DHT22;38621;52.830;6.914;2022-11-20T05:38:29;-0.30;99.90
52725;DHT22;38621;52.830;6.914;2022-11-20T05:40:55;0.60;99.90
52725;DHT22;38621;52.830;6.914;2022-11-20T05:43:20;0.40;99.90
52725;DHT22;38621;52.830;6.914;2022-11-20T05:45:53;-0.30;99.90
52725;DHT22;38621;52.830;6.914;2022-11-20T05:48:19;0.60;99.90
52725;DHT22;38621;52.830;6.914;2022-11-20T05:50:45;-0.30;99.90
52725;DHT22;38621;52.830;6.914;2022-11-20T05:53:11;-0.30;99.90
52725;DHT22;38621;52.830;6.914;2022-11-20T05:55:36;0.80;99.90
52725;DHT22;38621;52.830;6.914;2022-11-20T05:58:02;-0.40;99.90
52725;DHT22;38621;52.830;6.914;2022-11-20T06:00:28;-0.40;99.90
52725;DHT22;38621;52.830;6.914;2022-11-20T06:02:53;0.10;99.90
52725;DHT22;38621;52.830;6.914;2022-11-20T06:05:19;-0.40;99.90
52725;DHT22;38621;52.830;6.914;2022-11-20T06:07:44;-0.40;99.90
52725;DHT22;38621;52.830;6.914;2022-11-20T06:10:11;1.10;99.90
52725;DHT22;38621;52.830;6.914;2022-11-20T06:12:36;-0.40;99.90
52725;DHT22;38621;52.830;6.914;2022-11-20T06:15:03;-0.50;99.90
52725;DHT22;38621;52.830;6.914;2022-11-20T06:17:29;-0.50;99.90
52725;DHT22;38621;52.830;6.914;2022-11-20T06:19:54;-0.50;99.90
52725;DHT22;38621;52.830;6.914;2022-11-20T06:22:21;-0.50;99.90
52725;DHT22;38621;52.830;6.914;2022-11-20T06:24:47;-0.50;99.90
52725;DHT22;38621;52.830;6.914;2022-11-20T06:27:13;-0.60;99.90
52725;DHT22;38621;52.830;6.914;2022-11-20T06:29:38;0.20;99.90
52725;DHT22;38621;52.830;6.914;2022-11-20T06:32:04;-0.60;99.90
52725;DHT22;38621;52.830;6.914;2022-11-20T06:34:30;-0.60;99.90
52725;DHT22;38621;52.830;6.914;2022-11-20T06:36:55;-0.60;99.90
52725;DHT22;38621;52.830;6.914;2022-11-20T06:39:21;-0.60;99.90
52725;DHT22;38621;52.830;6.914;2022-11-20T06:41:47;-0.70;99.90
52725;DHT22;38621;52.830;6.914;2022-11-20T06:44:12;-0.60;99.90
52725;DHT22;38621;52.830;6.914;2022-11-20T06:46:38;-0.60;99.90
52725;DHT22;38621;52.830;6.914;2022-11-20T06:49:04;-0.60;99.90
52725;DHT22;38621;52.830;6.914;2022-11-20T06:51:29;-0.60;99.90
52725;DHT22;38621;52.830;6.914;2022-11-20T06:53:55;-0.60;99.90
52725;DHT22;38621;52.830;6.914;2022-11-20T06:56:21;-0.50;99.90
52725;DHT22;38621;52.830;6.914;2022-11-20T06:58:46;0.80;99.90
52725;DHT22;38621;52.830;6.914;2022-11-20T07:01:13;0.00;99.90
52725;DHT22;38621;52.830;6.914;2022-11-20T07:03:40;0.00;99.90
52725;DHT22;38621;52.830;6.914;2022-11-20T07:06:07;-0.50;99.90
52725;DHT22;38621;52.830;6.914;2022-11-20T07:08:34;-0.50;99.90
52725;DHT22;38621;52.830;6.914;2022-11-20T07:11:02;-0.50;99.90
52725;DHT22;38621;52.830;6.914;2022-11-20T07:13:28;0.20;99.90
52725;DHT22;38621;52.830;6.914;2022-11-20T07:15:55;-0.50;99.90
52725;DHT22;38621;52.830;6.914;2022-11-20T07:18:24;0.10;99.90
52725;DHT22;38621;52.830;6.914;2022-11-20T07:20:49;-0.50;99.90
52725;DHT22;38621;52.830;6.914;2022-11-20T07:23:15;-0.50;99.90
52725;DHT22;38621;52.830;6.914;2022-11-20T07:25:41;0.40;99.90
52725;DHT22;38621;52.830;6.914;2022-11-20T07:28:06;-0.50;99.90
52725;DHT22;38621;52.830;6.914;2022-11-20T07:30:32;-0.50;99.90
52725;DHT22;38621;52.830;6.914;2022-11-20T07:32:58;-0.50;99.90
52725;DHT22;38621;52.830;6.914;2022-11-20T07:35:24;-0.40;99.90
52725;DHT22;38621;52.830;6.914;2022-11-20T07:37:49;0.50;99.90
52725;DHT22;38621;52.830;6.914;2022-11-20T07:40:16;-0.40;99.90
52725;DHT22;38621;52.830;6.914;2022-11-20T07:42:53;-0.40;99.90
52725;DHT22;38621;52.830;6.914;2022-11-20T07:45:20;-0.40;99.90
52725;DHT22;38621;52.830;6.914;2022-11-20T07:47:46;-0.40;99.90
52725;DHT22;38621;52.830;6.914;2022-11-20T07:50:12;-0.40;99.90
52725;DHT22;38621;52.830;6.914;2022-11-20T07:52:39;-0.40;99.90
52725;DHT22;38621;52.830;6.914;2022-11-20T07:55:05;0.30;99.90
52725;DHT22;38621;52.830;6.914;2022-11-20T07:57:31;-0.40;99.90
52725;DHT22;38621;52.830;6.914;2022-11-20T07:59:56;-0.50;99.90
52725;DHT22;38621;52.830;6.914;2022-11-20T08:02:22;-0.50;99.90
52725;DHT22;38621;52.830;6.914;2022-11-20T08:04:47;-0.50;99.90
52725;DHT22;38621;52.830;6.914;2022-11-20T08:07:13;-0.60;99.90
52725;DHT22;38621;52.830;6.914;2022-11-20T08:09:39;-0.60;99.90
52725;DHT22;38621;52.830;6.914;2022-11-20T08:12:05;-0.60;99.90
52725;DHT22;38621;52.830;6.914;2022-11-20T08:14:49;-0.60;99.90
52725;DHT22;38621;52.830;6.914;2022-11-20T08:17:15;-0.60;99.90
52725;DHT22;38621;52.830;6.914;2022-11-20T08:19:41;-0.60;99.90
52725;DHT22;38621;52.830;6.914;2022-11-20T08:22:07;-0.60;99.90
52725;DHT22;38621;52.830;6.914;2022-11-20T08:24:32;-0.60;99.90
52725;DHT22;38621;52.830;6.914;2022-11-20T08:26:59;-0.10;99.90
52725;DHT22;38621;52.830;6.914;2022-11-20T08:29:26;-0.50;99.90
52725;DHT22;38621;52.830;6.914;2022-11-20T08:31:52;-0.50;99.90
52725;DHT22;38621;52.830;6.914;2022-11-20T08:34:18;-0.50;99.90
52725;DHT22;38621;52.830;6.914;2022-11-20T08:36:43;-0.50;99.90
52725;DHT22;38621;52.830;6.914;2022-11-20T08:39:11;-0.50;99.90
52725;DHT22;38621;52.830;6.914;2022-11-20T08:41:37;-0.40;99.90
52725;DHT22;38621;52.830;6.914;2022-11-20T08:44:05;-0.40;99.90
52725;DHT22;38621;52.830;6.914;2022-11-20T08:46:37;-0.40;99.90
52725;DHT22;38621;52.830;6.914;2022-11-20T08:49:04;-0.30;99.90
52725;DHT22;38621;52.830;6.914;2022-11-20T08:51:32;-0.30;99.90
52725;DHT22;38621;52.830;6.914;2022-11-20T08:53:57;0.30;99.90
52725;DHT22;38621;52.830;6.914;2022-11-20T08:56:23;0.70;99.90
52725;DHT22;38621;52.830;6.914;2022-11-20T08:58:50;-0.20;99.90
52725;DHT22;38621;52.830;6.914;2022-11-20T09:01:15;-0.20;99.90
52725;DHT22;38621;52.830;6.914;2022-11-20T09:03:41;-0.20;99.90
52725;DHT22;38621;52.830;6.914;2022-11-20T09:06:07;-0.20;99.90
52725;DHT22;38621;52.830;6.914;2022-11-20T09:08:34;1.30;99.90
52725;DHT22;38621;52.830;6.914;2022-11-20T09:11:00;-0.10;99.90
52725;DHT22;38621;52.830;6.914;2022-11-20T09:13:27;1.50;99.90
52725;DHT22;38621;52.830;6.914;2022-11-20T09:16:01;0.30;99.90
52725;DHT22;38621;52.830;6.914;2022-11-20T09:18:28;-0.10;99.90
52725;DHT22;38621;52.830;6.914;2022-11-20T09:20:58;1.30;99.90
52725;DHT22;38621;52.830;6.914;2022-11-20T09:23:24;0.40;99.90
52725;DHT22;38621;52.830;6.914;2022-11-20T09:25:50;0.00;99.90
52725;DHT22;38621;52.830;6.914;2022-11-20T09:28:16;1.80;99.90
52725;DHT22;38621;52.830;6.914;2022-11-20T09:30:44;1.00;99.90
52725;DHT22;38621;52.830;6.914;2022-11-20T09:33:09;0.10;99.90
52725;DHT22;38621;52.830;6.914;2022-11-20T09:35:35;1.60;99.90
52725;DHT22;38621;52.830;6.914;2022-11-20T09:38:07;0.10;99.90
52725;DHT22;38621;52.830;6.914;2022-11-20T09:40:35;0.20;99.90
52725;DHT22;38621;52.830;6.914;2022-11-20T09:43:03;0.20;99.90
52725;DHT22;38621;52.830;6.914;2022-11-20T09:45:42;0.20;99.90
52725;DHT22;38621;52.830;6.914;2022-11-20T09:53:46;0.40;99.90
52725;DHT22;38621;52.830;6.914;2022-11-20T09:56:17;2.00;99.90
52725;DHT22;38621;52.830;6.914;2022-11-20T09:58:55;0.40;99.90
52725;DHT22;38621;52.830;6.914;2022-11-20T10:01:26;1.20;99.90
52725;DHT22;38621;52.830;6.914;2022-11-20T10:04:01;1.40;99.90
52725;DHT22;38621;52.830;6.914;2022-11-20T10:06:31;0.50;99.90
52725;DHT22;38621;52.830;6.914;2022-11-20T10:09:57;0.50;99.90
52725;DHT22;38621;52.830;6.914;2022-11-20T10:27:18;1.00;99.90
52725;DHT22;38621;52.830;6.914;2022-11-20T10:29:14;1.20;99.90
52725;DHT22;38621;52.830;6.914;2022-11-20T10:31:54;1.30;99.90
52725;DHT22;38621;52.830;6.914;2022-11-20T10:34:44;2.20;99.90
52725;DHT22;38621;52.830;6.914;2022-11-20T10:37:18;1.50;99.90
52725;DHT22;38621;52.830;6.914;2022-11-20T10:47:43;2.20;99.90
52725;DHT22;38621;52.830;6.914;2022-11-20T10:50:11;3.30;99.90
52725;DHT22;38621;52.830;6.914;2022-11-20T10:55:25;2.40;99.90
52725;DHT22;38621;52.830;6.914;2022-11-20T11:00:37;2.50;99.90
52725;DHT22;38621;52.830;6.914;2022-11-20T11:03:20;3.60;99.90
52725;DHT22;38621;52.830;6.914;2022-11-20T11:06:08;2.60;99.90
52725;DHT22;38621;52.830;6.914;2022-11-20T11:08:38;2.70;99.90
52725;DHT22;38621;52.830;6.914;2022-11-20T11:11:33;2.70;99.90
52725;DHT22;38621;52.830;6.914;2022-11-20T11:14:13;2.90;99.90
52725;DHT22;38621;52.830;6.914;2022-11-20T11:16:53;2.70;99.90
52725;DHT22;38621;52.830;6.914;2022-11-20T11:19:19;3.60;99.90
52725;DHT22;38621;52.830;6.914;2022-11-20T11:21:55;3.30;99.90
52725;DHT22;38621;52.830;6.914;2022-11-20T11:24:25;2.60;99.90
52725;DHT22;38621;52.830;6.914;2022-11-20T11:26:59;2.60;99.90
52725;DHT22;38621;52.830;6.914;2022-11-20T11:29:25;3.00;99.90
52725;DHT22;38621;52.830;6.914;2022-11-20T11:32:11;2.50;99.90
52725;DHT22;38621;52.830;6.914;2022-11-20T11:34:37;2.50;99.90
52725;DHT22;38621;52.830;6.914;2022-11-20T11:37:04;2.50;99.90
52725;DHT22;38621;52.830;6.914;2022-11-20T11:39:37;2.50;99.90
52725;DHT22;38621;52.830;6.914;2022-11-20T11:42:06;2.50;99.90
52725;DHT22;38621;52.830;6.914;2022-11-20T11:44:34;2.50;99.90
52725;DHT22;38621;52.830;6.914;2022-11-20T11:47:24;2.50;99.90
52725;DHT22;38621;52.830;6.914;2022-11-20T11:55:47;2.50;99.90
52725;DHT22;38621;52.830;6.914;2022-11-20T12:07:03;2.50;99.90
52725;DHT22;38621;52.830;6.914;2022-11-20T12:09:37;3.50;99.90
52725;DHT22;38621;52.830;6.914;2022-11-20T12:12:18;2.60;99.90
52725;DHT22;38621;52.830;6.914;2022-11-20T12:14:48;2.70;99.90
52725;DHT22;38621;52.830;6.914;2022-11-20T12:17:15;2.80;99.90
52725;DHT22;38621;52.830;6.914;2022-11-20T12:19:43;2.80;99.90
52725;DHT22;38621;52.830;6.914;2022-11-20T12:25:30;2.80;99.90
52725;DHT22;38621;52.830;6.914;2022-11-20T12:31:23;2.90;99.90
52725;DHT22;38621;52.830;6.914;2022-11-20T12:36:25;3.00;99.90
52725;DHT22;38621;52.830;6.914;2022-11-20T12:48:05;3.20;99.90
52725;DHT22;38621;52.830;6.914;2022-11-20T12:58:41;2.80;99.90
52725;DHT22;38621;52.830;6.914;2022-11-20T13:01:30;2.70;99.90
52725;DHT22;38621;52.830;6.914;2022-11-20T13:06:45;2.80;99.90
52725;DHT22;38621;52.830;6.914;2022-11-20T13:09:15;2.90;99.90
52725;DHT22;38621;52.830;6.914;2022-11-20T13:12:03;4.10;99.90
52725;DHT22;38621;52.830;6.914;2022-11-20T13:17:19;3.30;99.90
52725;DHT22;38621;52.830;6.914;2022-11-20T13:19:53;4.20;99.90
52725;DHT22;38621;52.830;6.914;2022-11-20T13:22:27;3.30;99.90
52725;DHT22;38621;52.830;6.914;2022-11-20T13:24:53;3.50;99.90
52725;DHT22;38621;52.830;6.914;2022-11-20T13:27:21;3.00;99.90
52725;DHT22;38621;52.830;6.914;2022-11-20T13:30:15;3.00;99.90
52725;DHT22;38621;52.830;6.914;2022-11-20T13:33:09;2.90;99.90
52725;DHT22;38621;52.830;6.914;2022-11-20T13:35:59;3.00;99.90
52725;DHT22;38621;52.830;6.914;2022-11-20T13:38:26;3.40;99.90
52725;DHT22;38621;52.830;6.914;2022-11-20T13:40:56;3.30;99.90
52725;DHT22;38621;52.830;6.914;2022-11-20T13:43:37;3.10;99.90
52725;DHT22;38621;52.830;6.914;2022-11-20T13:46:06;3.10;99.90
52725;DHT22;38621;52.830;6.914;2022-11-20T13:48:38;3.50;99.90
52725;DHT22;38621;52.830;6.914;2022-11-20T13:59:49;3.10;99.90
52725;DHT22;38621;52.830;6.914;2022-11-20T14:02:20;3.20;99.90
52725;DHT22;38621;52.830;6.914;2022-11-20T14:04:53;3.90;99.90
52725;DHT22;38621;52.830;6.914;2022-11-20T14:07:23;3.10;99.90
52725;DHT22;38621;52.830;6.914;2022-11-20T14:09:51;3.00;99.90
52725;DHT22;38621;52.830;6.914;2022-11-20T14:12:21;2.90;99.90
52725;DHT22;38621;52.830;6.914;2022-11-20T14:14:52;2.90;99.90
52725;DHT22;38621;52.830;6.914;2022-11-20T14:17:23;2.80;99.90
52725;DHT22;38621;52.830;6.914;2022-11-20T14:19:51;3.90;99.90
52725;DHT22;38621;52.830;6.914;2022-11-20T14:22:22;2.80;99.90
52725;DHT22;38621;52.830;6.914;2022-11-20T14:24:51;2.70;99.90
52725;DHT22;38621;52.830;6.914;2022-11-20T14:27:25;3.60;99.90
52725;DHT22;38621;52.830;6.914;2022-11-20T14:29:51;2.60;99.90
52725;DHT22;38621;52.830;6.914;2022-11-20T14:32:18;3.80;99.90
52725;DHT22;38621;52.830;6.914;2022-11-20T14:34:46;3.40;99.90
52725;DHT22;38621;52.830;6.914;2022-11-20T14:37:21;2.50;99.90
52725;DHT22;38621;52.830;6.914;2022-11-20T14:39:51;3.00;99.90
52725;DHT22;38621;52.830;6.914;2022-11-20T14:42:23;2.40;99.90
52725;DHT22;38621;52.830;6.914;2022-11-20T14:44:50;3.20;99.90
52725;DHT22;38621;52.830;6.914;2022-11-20T14:47:23;2.30;99.90
52725;DHT22;38621;52.830;6.914;2022-11-20T14:49:50;2.30;99.90
52725;DHT22;38621;52.830;6.914;2022-11-20T14:52:19;2.80;99.90
52725;DHT22;38621;52.830;6.914;2022-11-20T14:54:50;2.20;99.90
52725;DHT22;38621;52.830;6.914;2022-11-20T14:57:26;2.20;99.90
52725;DHT22;38621;52.830;6.914;2022-11-20T15:02:30;2.10;99.90
52725;DHT22;38621;52.830;6.914;2022-11-20T15:05:00;2.70;99.90
52725;DHT22;38621;52.830;6.914;2022-11-20T15:07:35;2.60;99.90
52725;DHT22;38621;52.830;6.914;2022-11-20T15:10:07;2.00;99.90
52725;DHT22;38621;52.830;6.914;2022-11-20T15:12:37;2.00;99.90
52725;DHT22;38621;52.830;6.914;2022-11-20T15:15:04;2.60;99.90
52725;DHT22;38621;52.830;6.914;2022-11-20T15:17:31;1.90;99.90
52725;DHT22;38621;52.830;6.914;2022-11-20T15:19:58;1.90;99.90
52725;DHT22;38621;52.830;6.914;2022-11-20T15:22:25;1.90;99.90
52725;DHT22;38621;52.830;6.914;2022-11-20T15:24:51;1.90;99.90
52725;DHT22;38621;52.830;6.914;2022-11-20T15:27:16;1.80;99.90
52725;DHT22;38621;52.830;6.914;2022-11-20T15:29:42;1.80;99.90
52725;DHT22;38621;52.830;6.914;2022-11-20T15:32:08;1.80;99.90
52725;DHT22;38621;52.830;6.914;2022-11-20T15:34:34;1.80;99.90
52725;DHT22;38621;52.830;6.914;2022-11-20T15:37:00;1.80;99.90
52725;DHT22;38621;52.830;6.914;2022-11-20T15:39:25;2.10;99.90
52725;DHT22;38621;52.830;6.914;2022-11-20T15:41:51;2.50;99.90
52725;DHT22;38621;52.830;6.914;2022-11-20T15:44:17;1.80;99.90
52725;DHT22;38621;52.830;6.914;2022-11-20T15:46:42;1.80;99.90
52725;DHT22;38621;52.830;6.914;2022-11-20T15:49:15;1.80;99.90
52725;DHT22;38621;52.830;6.914;2022-11-20T15:51:46;2.00;99.90
52725;DHT22;38621;52.830;6.914;2022-11-20T15:54:17;1.80;99.90
52725;DHT22;38621;52.830;6.914;2022-11-20T15:56:45;2.40;99.90
52725;DHT22;38621;52.830;6.914;2022-11-20T15:59:12;1.80;99.90
52725;DHT22;38621;52.830;6.914;2022-11-20T16:01:40;1.70;99.90
52725;DHT22;38621;52.830;6.914;2022-11-20T16:04:13;1.70;99.90
52725;DHT22;38621;52.830;6.914;2022-11-20T16:06:39;1.80;99.90
52725;DHT22;38621;52.830;6.914;2022-11-20T16:09:05;3.20;99.90
52725;DHT22;38621;52.830;6.914;2022-11-20T16:11:31;3.20;99.90
52725;DHT22;38621;52.830;6.914;2022-11-20T16:13:57;2.70;99.90
52725;DHT22;38621;52.830;6.914;2022-11-20T16:16:41;1.70;99.90
52725;DHT22;38621;52.830;6.914;2022-11-20T16:19:15;2.40;99.90
52725;DHT22;38621;52.830;6.914;2022-11-20T16:21:42;1.70;99.90
52725;DHT22;38621;52.830;6.914;2022-11-20T16:24:10;0.80;99.90
52725;DHT22;38621;52.830;6.914;2022-11-20T16:26:38;2.00;99.90
52725;DHT22;38621;52.830;6.914;2022-11-20T16:29:04;1.70;99.90
52725;DHT22;38621;52.830;6.914;2022-11-20T16:31:31;1.70;99.90
52725;DHT22;38621;52.830;6.914;2022-11-20T16:33:59;1.70;99.90
52725;DHT22;38621;52.830;6.914;2022-11-20T16:36:27;1.60;99.90
52725;DHT22;38621;52.830;6.914;2022-11-20T16:38:58;1.70;99.90
52725;DHT22;38621;52.830;6.914;2022-11-20T16:41:25;1.70;99.90
52725;DHT22;38621;52.830;6.914;2022-11-20T16:43:54;1.80;99.90
52725;DHT22;38621;52.830;6.914;2022-11-20T16:46:23;1.60;99.90
52725;DHT22;38621;52.830;6.914;2022-11-20T16:49:04;2.20;99.90
52725;DHT22;38621;52.830;6.914;2022-11-20T16:51:32;1.60;99.90
52725;DHT22;38621;52.830;6.914;2022-11-20T16:54:01;3.30;99.90
52725;DHT22;38621;52.830;6.914;2022-11-20T16:56:27;1.60;99.90
52725;DHT22;38621;52.830;6.914;2022-11-20T16:58:56;1.70;99.90
52725;DHT22;38621;52.830;6.914;2022-11-20T17:01:23;1.70;99.90
52725;DHT22;38621;52.830;6.914;2022-11-20T17:03:58;1.60;99.90
52725;DHT22;38621;52.830;6.914;2022-11-20T17:06:27;2.60;99.90
52725;DHT22;38621;52.830;6.914;2022-11-20T17:08:54;2.10;99.90
52725;DHT22;38621;52.830;6.914;2022-11-20T17:11:20;1.60;99.90
52725;DHT22;38621;52.830;6.914;2022-11-20T17:13:46;1.60;99.90
52725;DHT22;38621;52.830;6.914;2022-11-20T17:16:17;2.40;99.90
52725;DHT22;38621;52.830;6.914;2022-11-20T17:18:44;1.60;99.90
52725;DHT22;38621;52.830;6.914;2022-11-20T17:21:10;1.70;99.90
52725;DHT22;38621;52.830;6.914;2022-11-20T17:23:38;1.80;99.90
52725;DHT22;38621;52.830;6.914;2022-11-20T17:26:18;1.60;99.90
52725;DHT22;38621;52.830;6.914;2022-11-20T17:28:45;1.60;99.90